createdAt,value
2022-09-10T00:01:17.133Z,94197.44
2022-09-10T00:03:43.754Z,94184.00
2022-09-10T00:06:11.220Z,94191.25
2022-09-10T00:08:39.509Z,94188.31
2022-09-10T00:11:09.792Z,94193.69
2022-09-10T00:13:39.228Z,94192.91
2022-09-10T00:16:10.148Z,94196.63
2022-09-10T00:18:38.633Z,94194.19
2022-09-10T00:21:09.038Z,94194.19
2022-09-10T00:23:36.547Z,94196.34
2022-09-10T00:26:19.087Z,94185.09
2022-09-10T00:28:45.777Z,94182.00
2022-09-10T00:31:13.415Z,94180.59
2022-09-10T00:33:40.203Z,94178.31
2022-09-10T00:36:37.230Z,94190.34
2022-09-10T00:39:09.620Z,94190.03
2022-09-10T00:41:38.523Z,94190.78
2022-09-10T00:44:08.209Z,94184.34
2022-09-10T00:46:50.888Z,94186.00
2022-09-10T00:49:22.347Z,94194.94
2022-09-10T00:51:52.565Z,94191.25
2022-09-10T00:54:21.960Z,94188.31
2022-09-10T00:56:49.797Z,94191.41
2022-09-10T00:59:20.313Z,94187.22
2022-09-10T01:01:49.322Z,94181.09
2022-09-10T01:04:16.152Z,94178.91
2022-09-10T01:06:45.750Z,94174.72
2022-09-10T01:09:14.224Z,94170.13
2022-09-10T01:12:09.430Z,94176.91
2022-09-10T01:14:56.187Z,94176.91
2022-09-10T01:17:33.981Z,94167.81
2022-09-10T01:20:11.005Z,94171.50
2022-09-10T01:23:17.996Z,94167.69
2022-09-10T01:26:03.903Z,94168.44
2022-09-10T01:28:45.506Z,94163.69
2022-09-10T01:31:23.995Z,94169.56
2022-09-10T01:34:02.220Z,94166.81
2022-09-10T01:36:35.243Z,94158.78
2022-09-10T01:39:02.624Z,94156.03
2022-09-10T01:41:29.304Z,94144.13
2022-09-10T01:43:57.072Z,94149.97
2022-09-10T01:46:55.055Z,94149.22
2022-09-10T01:49:32.362Z,94149.34
2022-09-10T01:52:04.912Z,94150.75
2022-09-10T01:54:45.581Z,94147.69
2022-09-10T01:57:46.130Z,94147.41
2022-09-10T02:00:16.016Z,94150.06
2022-09-10T02:02:52.076Z,94155.94
2022-09-10T02:05:22.181Z,94146.88
2022-09-10T02:07:59.544Z,94141.91
2022-09-10T02:10:26.596Z,94147.31
2022-09-10T02:12:54.053Z,94143.13
2022-09-10T02:15:41.274Z,94141.91
2022-09-10T02:18:24.038Z,94142.53
2022-09-10T02:20:55.743Z,94141.16
2022-09-10T02:23:27.359Z,94148.88
2022-09-10T02:25:54.176Z,94139.00
2022-09-10T02:28:27.564Z,94129.47
2022-09-10T02:30:55.038Z,94132.88
2022-09-10T02:33:21.996Z,94128.84
2022-09-10T02:35:49.772Z,94127.13
2022-09-10T02:38:18.192Z,94135.78
2022-09-10T02:40:49.074Z,94131.91
2022-09-10T02:43:17.379Z,94129.16
2022-09-10T02:45:44.669Z,94132.09
2022-09-10T02:48:11.386Z,94140.22
2022-09-10T02:50:38.613Z,94143.31
2022-09-10T02:53:05.726Z,94140.38
2022-09-10T02:55:32.714Z,94144.72
2022-09-10T02:57:59.350Z,94141.91
2022-09-10T03:00:26.059Z,94145.63
2022-09-10T03:02:56.868Z,94144.25
2022-09-10T03:05:27.918Z,94139.44
2022-09-10T03:07:55.442Z,94142.53
2022-09-10T03:10:22.151Z,94146.25
2022-09-10T03:12:49.391Z,94147.63
2022-09-10T03:15:18.017Z,94149.47
2022-09-10T03:17:44.615Z,94147.16
2022-09-10T03:20:11.243Z,94153.16
2022-09-10T03:22:38.204Z,94146.09
2022-09-10T03:25:06.296Z,94147.16
2022-09-10T03:27:35.672Z,94155.03
2022-09-10T03:30:03.169Z,94150.25
2022-09-10T03:32:32.274Z,94146.53
2022-09-10T03:35:00.041Z,94141.28
2022-09-10T03:37:26.836Z,94136.53
2022-09-10T03:39:53.509Z,94144.66
2022-09-10T03:42:20.122Z,94142.94
2022-09-10T03:44:46.667Z,94142.66
2022-09-10T03:47:13.275Z,94147.13
2022-09-10T03:49:39.984Z,94153.75
2022-09-10T03:52:07.364Z,94155.59
2022-09-10T03:54:37.314Z,94146.22
2022-09-10T03:57:04.102Z,94140.97
2022-09-10T03:59:31.957Z,94148.69
2022-09-10T04:02:01.322Z,94143.28
2022-09-10T04:04:27.914Z,94144.22
2022-09-10T04:06:54.522Z,94142.34
2022-09-10T04:09:21.256Z,94140.66
2022-09-10T04:11:47.874Z,94145.44
2022-09-10T04:14:15.603Z,94147.47
2022-09-10T04:16:42.867Z,94134.66
2022-09-10T04:19:13.194Z,94140.22
2022-09-10T04:21:40.043Z,94156.72
2022-09-10T04:24:09.936Z,94132.81
2022-09-10T04:26:36.592Z,94131.75
2022-09-10T04:29:04.224Z,94144.84
2022-09-10T04:31:31.022Z,94144.69
2022-09-10T04:34:03.202Z,94148.72
2022-09-10T04:36:32.311Z,94147.47
2022-09-10T04:38:59.868Z,94149.66
2022-09-10T04:41:27.224Z,94145.94
2022-09-10T04:43:53.982Z,94144.88
2022-09-10T04:46:20.602Z,94145.94
2022-09-10T04:48:50.411Z,94144.09
2022-09-10T04:51:20.243Z,94146.72
2022-09-10T04:53:48.725Z,94139.28
2022-09-10T04:56:15.683Z,94153.94
2022-09-10T04:58:44.116Z,94149.16
2022-09-10T05:01:11.502Z,94153.31
2022-09-10T05:03:38.350Z,94153.31
2022-09-10T05:06:06.652Z,94157.63
2022-09-10T05:08:34.083Z,94154.56
2022-09-10T05:11:02.912Z,94151.94
2022-09-10T05:13:33.420Z,94148.88
2022-09-10T05:16:01.667Z,94154.91
2022-09-10T05:18:30.111Z,94152.13
2022-09-10T05:20:57.290Z,94161.97
2022-09-10T05:23:24.250Z,94165.81
2022-09-10T05:25:53.778Z,94159.06
2022-09-10T05:28:21.942Z,94164.44
2022-09-10T05:30:51.739Z,94159.38
2022-09-10T05:33:22.068Z,94171.72
2022-09-10T05:35:51.758Z,94177.56
2022-09-10T05:38:19.040Z,94168.94
2022-09-10T05:40:45.739Z,94178.03
2022-09-10T05:43:12.999Z,94176.63
2022-09-10T05:45:39.716Z,94164.31
2022-09-10T05:48:07.151Z,94165.38
2022-09-10T05:50:34.228Z,94170.00
2022-09-10T05:53:01.206Z,94168.31
2022-09-10T05:55:31.262Z,94165.09
2022-09-10T05:57:58.562Z,94172.16
2022-09-10T06:00:25.546Z,94159.53
2022-09-10T06:03:00.589Z,94167.22
2022-09-10T06:05:31.798Z,94170.28
2022-09-10T06:08:00.100Z,94166.59
2022-09-10T06:10:26.781Z,94157.66
2022-09-10T06:12:53.454Z,94164.88
2022-09-10T06:15:21.319Z,94175.22
2022-09-10T06:17:50.054Z,94173.22
2022-09-10T06:20:17.504Z,94176.91
2022-09-10T06:22:45.749Z,94182.13
2022-09-10T06:25:12.795Z,94177.78
2022-09-10T06:27:40.862Z,94185.19
2022-09-10T06:30:08.507Z,94179.94
2022-09-10T06:32:39.269Z,94183.34
2022-09-10T06:35:09.409Z,94184.13
2022-09-10T06:37:37.097Z,94179.00
2022-09-10T06:40:07.108Z,94176.19
2022-09-10T06:42:34.458Z,94191.78
2022-09-10T06:45:12.928Z,94190.22
2022-09-10T06:48:37.230Z,94185.44
2022-09-10T06:50:55.283Z,94187.75
2022-09-10T06:53:28.804Z,94201.31
2022-09-10T06:55:56.363Z,94195.75
2022-09-10T06:58:24.667Z,94196.97
2022-09-10T07:00:53.175Z,94192.19
2022-09-10T07:03:21.968Z,94193.56
2022-09-10T07:05:50.976Z,94200.03
2022-09-10T07:08:18.261Z,94202.78
2022-09-10T07:10:50.441Z,94197.06
2022-09-10T07:13:17.427Z,94199.50
2022-09-10T07:15:47.450Z,94199.94
2022-09-10T07:18:15.574Z,94204.88
2022-09-10T07:20:43.448Z,94204.25
2022-09-10T07:23:14.462Z,94208.88
2022-09-10T07:25:41.917Z,94210.84
2022-09-10T07:28:18.131Z,94208.69
2022-09-10T07:30:47.534Z,94208.06
2022-09-10T07:33:15.332Z,94211.44
2022-09-10T07:35:43.739Z,94219.16
2022-09-10T07:38:14.129Z,94219.91
2022-09-10T07:40:43.720Z,94217.28
2022-09-10T07:43:10.558Z,94218.03
2022-09-10T07:45:37.217Z,94223.63
2022-09-10T07:48:04.998Z,94226.69
2022-09-10T07:50:36.196Z,94227.63
2022-09-10T07:53:02.995Z,94231.31
2022-09-10T07:55:31.572Z,94237.47
2022-09-10T07:58:00.214Z,94232.53
2022-09-10T08:00:29.486Z,94233.28
2022-09-10T08:02:59.759Z,94236.22
2022-09-10T08:05:28.800Z,94243.91
2022-09-10T08:07:55.494Z,94250.06
2022-09-10T08:10:25.227Z,94248.66
2022-09-10T08:12:52.224Z,94246.19
2022-09-10T08:15:19.013Z,94256.06
2022-09-10T08:17:46.160Z,94254.94
2022-09-10T08:20:13.575Z,94267.34
2022-09-10T08:22:43.330Z,94258.69
2022-09-10T08:25:10.832Z,94265.47
2022-09-10T08:27:37.435Z,94262.38
2022-09-10T08:30:07.782Z,94268.56
2022-09-10T08:32:36.024Z,94254.06
2022-09-10T08:35:05.035Z,94276.25
2022-09-10T08:37:33.409Z,94274.09
2022-09-10T08:40:00.219Z,94273.81
2022-09-10T08:42:35.631Z,94282.13
2022-09-10T08:45:14.785Z,94279.94
2022-09-10T08:47:53.535Z,94277.03
2022-09-10T08:50:41.592Z,94290.59
2022-09-10T08:53:23.096Z,94281.31
2022-09-10T08:55:50.752Z,94274.97
2022-09-10T08:58:25.248Z,94283.44
2022-09-10T09:00:57.723Z,94290.06
2022-09-10T09:03:35.790Z,94290.06
2022-09-10T09:06:05.698Z,94286.38
2022-09-10T09:08:48.515Z,94287.16
2022-09-10T09:11:29.334Z,94289.63
2022-09-10T09:14:04.458Z,94304.94
2022-09-10T09:16:46.120Z,94296.34
2022-09-10T09:19:39.843Z,94301.91
2022-09-10T09:22:17.256Z,94294.94
2022-09-10T09:25:30.404Z,94290.66
2022-09-10T09:27:57.655Z,94293.13
2022-09-10T09:30:49.351Z,94294.41
2022-09-10T09:33:22.565Z,94293.00
2022-09-10T09:36:03.950Z,94279.78
2022-09-10T09:38:38.714Z,94283.97
2022-09-10T09:41:42.345Z,94284.09
2022-09-10T09:44:28.753Z,94281.41
2022-09-10T09:46:56.434Z,94281.94
2022-09-10T09:49:25.480Z,94270.13
2022-09-10T09:51:55.136Z,94276.72
2022-09-10T09:55:03.088Z,94267.03
2022-09-10T09:57:20.560Z,94272.31
2022-09-10T09:59:49.519Z,94275.03
2022-09-10T10:02:19.967Z,94276.25
2022-09-10T10:05:07.575Z,94284.81
2022-09-10T10:07:36.287Z,94265.38
2022-09-10T10:10:07.517Z,94264.53
2022-09-10T10:12:37.010Z,94264.06
2022-09-10T10:15:03.785Z,94247.69
2022-09-10T10:17:38.595Z,94254.91
2022-09-10T10:20:13.951Z,94255.44
2022-09-10T10:22:48.524Z,94248.88
2022-09-10T10:25:34.159Z,94243.81
2022-09-10T10:28:00.848Z,94241.50
2022-09-10T10:30:30.063Z,94242.13
2022-09-10T10:33:01.959Z,94237.03
2022-09-10T10:35:33.691Z,94242.47
2022-09-10T10:38:06.381Z,94229.63
2022-09-10T10:41:00.748Z,94237.28
2022-09-10T10:43:42.399Z,94244.78
2022-09-10T10:46:28.165Z,94236.53
2022-09-10T10:49:07.342Z,94239.22
2022-09-10T10:51:39.649Z,94241.63
2022-09-10T10:54:12.311Z,94244.28
2022-09-10T10:56:42.750Z,94229.81
2022-09-10T10:59:46.121Z,94238.22
2022-09-10T11:02:50.527Z,94230.50
2022-09-10T11:05:38.572Z,94233.81
2022-09-10T11:08:11.108Z,94240.44
2022-09-10T11:11:14.764Z,94253.41
2022-09-10T11:13:44.349Z,94234.53
2022-09-10T11:16:15.160Z,94231.16
2022-09-10T11:19:19.760Z,94227.50
2022-09-10T11:22:14.595Z,94227.00
2022-09-10T11:24:50.217Z,94235.28
2022-09-10T11:27:33.301Z,94223.66
2022-09-10T11:30:05.269Z,94228.28
2022-09-10T11:32:53.058Z,94225.06
2022-09-10T11:35:33.984Z,94229.41
2022-09-10T11:38:55.991Z,94212.78
2022-09-10T11:41:28.630Z,94231.97
2022-09-10T11:44:22.505Z,94219.19
2022-09-10T11:47:14.386Z,94225.31
2022-09-10T11:49:55.258Z,94226.38
2022-09-10T11:52:23.412Z,94231.09
2022-09-10T11:54:50.050Z,94230.75
2022-09-10T11:57:31.585Z,94228.72
2022-09-10T12:00:15.693Z,94232.59
2022-09-10T12:02:54.508Z,94238.50
2022-09-10T12:05:55.093Z,94232.91
2022-09-10T12:09:20.542Z,94236.31
2022-09-10T12:12:22.362Z,94238.41
2022-09-10T12:14:49.036Z,94233.00
2022-09-10T12:17:28.084Z,94246.41
2022-09-10T12:19:57.227Z,94242.97
2022-09-10T12:22:36.926Z,94231.69
2022-09-10T12:25:24.088Z,94234.41
2022-09-10T12:27:52.936Z,94232.28
2022-09-10T12:30:27.556Z,94228.50
2022-09-10T12:32:55.648Z,94233.16
2022-09-10T12:35:31.267Z,94232.56
2022-09-10T12:38:35.752Z,94233.44
2022-09-10T12:41:04.407Z,94213.28
2022-09-10T12:43:43.354Z,94218.78
2022-09-10T12:46:09.930Z,94217.59
2022-09-10T12:48:40.099Z,94212.06
2022-09-10T12:51:46.265Z,94207.22
2022-09-10T12:54:31.656Z,94215.09
2022-09-10T12:57:20.298Z,94211.19
2022-09-10T13:00:12.643Z,94214.16
2022-09-10T13:02:52.615Z,94210.78
2022-09-10T13:05:39.852Z,94205.34
2022-09-10T13:08:15.366Z,94205.84
2022-09-10T13:11:15.782Z,94204.78
2022-09-10T13:14:02.039Z,94186.81
2022-09-10T13:16:28.634Z,94187.66
2022-09-10T13:19:13.367Z,94196.09
2022-09-10T13:21:42.774Z,94189.06
2022-09-10T13:24:34.285Z,94175.25
2022-09-10T13:27:12.775Z,94180.91
2022-09-10T13:29:49.773Z,94178.50
2022-09-10T13:32:31.608Z,94186.00
2022-09-10T13:35:33.273Z,94186.94
2022-09-10T13:38:29.929Z,94195.16
2022-09-10T13:41:17.893Z,94185.94
2022-09-10T13:44:22.236Z,94175.03
2022-09-10T13:46:55.280Z,94187.03
2022-09-10T13:49:41.784Z,94189.75
2022-09-10T13:52:13.771Z,94183.19
2022-09-10T13:54:47.322Z,94168.81
2022-09-10T13:57:43.638Z,94168.88
2022-09-10T14:00:13.515Z,94173.28
2022-09-10T14:03:01.254Z,94163.28
2022-09-10T14:05:43.475Z,94165.44
2022-09-10T14:08:18.579Z,94173.06
2022-09-10T14:10:50.274Z,94185.34
2022-09-10T14:13:27.791Z,94173.88
2022-09-10T14:15:58.628Z,94180.25
2022-09-10T14:18:32.014Z,94173.44
2022-09-10T14:21:00.206Z,94190.50
2022-09-10T14:23:29.528Z,94194.03
2022-09-10T14:26:23.612Z,94180.13
2022-09-10T14:28:58.857Z,94191.25
2022-09-10T14:31:25.448Z,94187.13
2022-09-10T14:33:55.922Z,94196.72
2022-09-10T14:36:33.496Z,94182.91
2022-09-10T14:39:17.908Z,94187.09
2022-09-10T14:41:45.443Z,94183.16
2022-09-10T14:44:22.266Z,94183.84
2022-09-10T14:46:54.190Z,94184.50
2022-09-10T14:49:32.266Z,94184.28
2022-09-10T14:52:00.165Z,94170.69
2022-09-10T14:54:27.858Z,94168.50
2022-09-10T14:56:57.332Z,94169.38
2022-09-10T14:59:26.686Z,94164.97
2022-09-10T15:01:53.345Z,94174.16
2022-09-10T15:04:23.686Z,94172.19
2022-09-10T15:06:58.258Z,94168.63
2022-09-10T15:09:26.345Z,94177.38
2022-09-10T15:11:54.993Z,94181.97
2022-09-10T15:14:21.929Z,94171.31
2022-09-10T15:16:54.158Z,94167.00
2022-09-10T15:19:22.097Z,94168.72
2022-09-10T15:21:49.409Z,94167.00
2022-09-10T15:24:18.872Z,94176.53
2022-09-10T15:26:46.292Z,94179.22
2022-09-10T15:29:13.105Z,94170.50
2022-09-10T15:31:40.317Z,94180.53
2022-09-10T15:34:08.374Z,94181.31
2022-09-10T15:36:37.097Z,94172.28
2022-09-10T15:39:05.241Z,94179.19
2022-09-10T15:41:32.149Z,94176.88
2022-09-10T15:43:59.339Z,94178.41
2022-09-10T15:46:26.005Z,94185.22
2022-09-10T15:48:53.417Z,94182.81
2022-09-10T15:51:23.038Z,94189.28
2022-09-10T15:53:52.270Z,94190.41
2022-09-10T15:56:20.849Z,94194.47
2022-09-10T15:58:49.032Z,94190.53
2022-09-10T16:01:16.288Z,94183.88
2022-09-10T16:03:48.614Z,94185.66
2022-09-10T16:06:15.837Z,94192.56
2022-09-10T16:08:42.495Z,94191.59
2022-09-10T16:11:11.839Z,94185.59
2022-09-10T16:13:39.738Z,94197.47
2022-09-10T16:16:12.048Z,94198.56
2022-09-10T16:18:38.967Z,94191.97
2022-09-10T16:21:15.685Z,94196.78
2022-09-10T16:23:43.091Z,94195.66
2022-09-10T16:26:15.818Z,94192.69
2022-09-10T16:28:56.479Z,94195.00
2022-09-10T16:31:39.228Z,94202.44
2022-09-10T16:34:08.746Z,94191.94
2022-09-10T16:36:39.215Z,94209.06
2022-09-10T16:39:12.109Z,94199.78
2022-09-10T16:41:43.871Z,94198.53
2022-09-10T16:44:11.704Z,94199.13
2022-09-10T16:46:39.157Z,94199.81
2022-09-10T16:49:06.212Z,94213.03
2022-09-10T16:51:35.162Z,94205.13
2022-09-10T16:54:04.816Z,94209.56
2022-09-10T16:56:35.807Z,94201.53
2022-09-10T16:59:02.934Z,94206.13
2022-09-10T17:01:31.220Z,94208.44
2022-09-10T17:03:57.902Z,94224.00
2022-09-10T17:06:28.850Z,94230.59
2022-09-10T17:08:57.768Z,94225.44
2022-09-10T17:11:26.454Z,94220.47
2022-09-10T17:13:54.281Z,94221.91
2022-09-10T17:16:20.855Z,94234.97
2022-09-10T17:18:54.309Z,94230.22
2022-09-10T17:21:20.885Z,94241.91
2022-09-10T17:23:47.464Z,94240.59
2022-09-10T17:26:14.084Z,94227.97
2022-09-10T17:28:40.956Z,94233.75
2022-09-10T17:31:07.570Z,94241.38
2022-09-10T17:33:34.126Z,94241.44
2022-09-10T17:36:03.635Z,94248.75
2022-09-10T17:38:33.205Z,94245.91
2022-09-10T17:41:04.420Z,94253.50
2022-09-10T17:43:34.314Z,94248.97
2022-09-10T17:46:09.402Z,94259.84
2022-09-10T17:48:36.597Z,94263.19
2022-09-10T17:51:03.746Z,94281.31
2022-09-10T17:53:30.479Z,94277.19
2022-09-10T17:56:02.838Z,94269.81
2022-09-10T17:58:32.570Z,94280.03
2022-09-10T18:01:01.661Z,94274.97
2022-09-10T18:03:28.938Z,94270.81
2022-09-10T18:05:56.942Z,94278.69
2022-09-10T18:08:23.516Z,94266.06
2022-09-10T18:10:50.883Z,94271.63
2022-09-10T18:13:19.561Z,94266.53
2022-09-10T18:15:46.417Z,94281.22
2022-09-10T18:18:13.025Z,94269.81
2022-09-10T18:20:39.599Z,94274.59
2022-09-10T18:23:06.815Z,94271.53
2022-09-10T18:25:33.384Z,94284.50
2022-09-10T18:28:01.511Z,94279.75
2022-09-10T18:30:28.956Z,94285.47
2022-09-10T18:32:55.623Z,94288.09
2022-09-10T18:35:23.063Z,94296.28
2022-09-10T18:37:52.503Z,94291.97
2022-09-10T18:40:19.686Z,94287.03
2022-09-10T18:42:47.842Z,94286.59
2022-09-10T18:45:14.648Z,94291.53
2022-09-10T18:47:45.002Z,94293.69
2022-09-10T18:50:13.243Z,94297.88
2022-09-10T18:52:40.140Z,94294.31
2022-09-10T18:55:07.251Z,94294.16
2022-09-10T18:57:33.838Z,94304.66
2022-09-10T19:00:00.493Z,94314.22
2022-09-10T19:02:27.192Z,94314.22
2022-09-10T19:05:10.765Z,94313.75
2022-09-10T19:07:38.433Z,94310.22
2022-09-10T19:10:07.107Z,94310.84
2022-09-10T19:12:34.274Z,94314.84
2022-09-10T19:15:00.885Z,94309.44
2022-09-10T19:17:27.472Z,94307.94
2022-09-10T19:19:54.018Z,94307.16
2022-09-10T19:22:20.576Z,94313.31
2022-09-10T19:24:55.799Z,94311.31
2022-09-10T19:27:23.936Z,94311.78
2022-09-10T19:29:50.718Z,94309.16
2022-09-10T19:32:19.706Z,94303.47
2022-09-10T19:34:49.400Z,94305.59
2022-09-10T19:37:15.964Z,94307.16
2022-09-10T19:39:43.010Z,94301.75
2022-09-10T19:42:09.925Z,94312.25
2022-09-10T19:44:36.720Z,94303.16
2022-09-10T19:47:04.149Z,94305.00
2022-09-10T19:49:31.297Z,94309.16
2022-09-10T19:51:57.842Z,94304.69
2022-09-10T19:54:25.722Z,94308.72
2022-09-10T19:56:52.334Z,94306.38
2022-09-10T19:59:18.905Z,94309.31
2022-09-10T20:01:46.005Z,94315.94
2022-09-10T20:04:14.201Z,94317.03
2022-09-10T20:06:42.682Z,94312.41
2022-09-10T20:09:12.346Z,94316.13
2022-09-10T20:11:39.018Z,94316.13
2022-09-10T20:14:09.058Z,94321.34
2022-09-10T20:16:42.334Z,94311.94
2022-09-10T20:19:11.276Z,94311.44
2022-09-10T20:21:38.106Z,94315.47
2022-09-10T20:24:06.785Z,94310.50
2022-09-10T20:26:35.602Z,94314.69
2022-09-10T20:29:05.210Z,94317.31
2022-09-10T20:31:35.471Z,94316.69
2022-09-10T20:34:05.254Z,94325.03
2022-09-10T20:36:34.410Z,94319.19
2022-09-10T20:39:01.050Z,94320.72
2022-09-10T20:41:30.382Z,94317.03
2022-09-10T20:43:59.273Z,94325.81
2022-09-10T20:46:27.642Z,94325.22
2022-09-10T20:48:55.333Z,94326.91
2022-09-10T20:51:21.902Z,94323.94
2022-09-10T20:53:48.516Z,94322.88
2022-09-10T20:56:18.153Z,94320.72
2022-09-10T20:58:46.276Z,94318.09
2022-09-10T21:01:19.028Z,94321.50
2022-09-10T21:03:47.860Z,94323.78
2022-09-10T21:06:17.782Z,94321.66
2022-09-10T21:08:44.497Z,94324.56
2022-09-10T21:11:13.500Z,94325.50
2022-09-10T21:13:48.122Z,94333.81
2022-09-10T21:16:18.007Z,94330.75
2022-09-10T21:18:54.346Z,94337.38
2022-09-10T21:21:25.647Z,94333.66
2022-09-10T21:23:58.036Z,94330.28
2022-09-10T21:26:27.346Z,94343.06
2022-09-10T21:28:59.493Z,94335.22
2022-09-10T21:31:27.350Z,94332.59
2022-09-10T21:34:00.708Z,94330.91
2022-09-10T21:36:30.351Z,94327.66
2022-09-10T21:38:59.521Z,94326.41
2022-09-10T21:41:33.161Z,94332.31
2022-09-10T21:44:01.406Z,94333.66
2022-09-10T21:46:28.498Z,94340.78
2022-09-10T21:48:55.678Z,94342.28
2022-09-10T21:51:23.347Z,94333.22
2022-09-10T21:53:54.978Z,94340.44
2022-09-10T21:56:22.850Z,94339.69
2022-09-10T21:58:49.744Z,94330.91
2022-09-10T22:01:22.283Z,94334.13
2022-09-10T22:03:51.051Z,94334.91
2022-09-10T22:06:20.663Z,94331.53
2022-09-10T22:08:49.530Z,94334.44
2022-09-10T22:11:24.517Z,94331.81
2022-09-10T22:13:55.999Z,94333.38
2022-09-10T22:16:23.062Z,94326.13
2022-09-10T22:18:50.735Z,94319.31
2022-09-10T22:21:18.687Z,94317.97
2022-09-10T22:23:45.254Z,94321.81
2022-09-10T22:26:16.709Z,94319.47
2022-09-10T22:28:44.521Z,94318.72
2022-09-10T22:31:15.733Z,94324.72
2022-09-10T22:33:44.662Z,94320.09
2022-09-10T22:36:16.830Z,94326.88
2022-09-10T22:38:43.744Z,94325.34
2022-09-10T22:41:10.561Z,94333.53
2022-09-10T22:43:38.556Z,94331.69
2022-09-10T22:46:07.234Z,94334.28
2022-09-10T22:48:37.672Z,94330.56
2022-09-10T22:51:09.190Z,94328.72
2022-09-10T22:53:35.731Z,94337.38
2022-09-10T22:56:02.567Z,94342.63
2022-09-10T22:58:29.312Z,94342.16
2022-09-10T23:00:56.319Z,94338.75
2022-09-10T23:03:22.999Z,94350.03
2022-09-10T23:05:49.760Z,94350.63
2022-09-10T23:08:17.068Z,94346.16
2022-09-10T23:10:43.741Z,94355.88
2022-09-10T23:13:10.402Z,94353.53
2022-09-10T23:15:36.934Z,94350.91
2022-09-10T23:18:03.504Z,94352.78
2022-09-10T23:20:30.040Z,94352.47
2022-09-10T23:22:56.586Z,94347.56
2022-09-10T23:25:23.119Z,94356.94
2022-09-10T23:27:51.232Z,94347.06
2022-09-10T23:30:18.142Z,94353.38
2022-09-10T23:32:45.183Z,94356.28
2022-09-10T23:35:11.906Z,94351.38
2022-09-10T23:37:38.660Z,94342.09
2022-09-10T23:40:06.610Z,94350.75
2022-09-10T23:42:33.321Z,94358.44
2022-09-10T23:44:59.905Z,94346.56
2022-09-10T23:47:27.010Z,94349.31
2022-09-10T23:49:53.572Z,94351.03
2022-09-10T23:52:20.560Z,94346.06
2022-09-10T23:54:47.430Z,94356.88
2022-09-10T23:57:14.074Z,94345.00
2022-09-10T23:59:41.043Z,94349.44
